createdAt,value
2023-05-23T00:01:51.028Z,8.80
2023-05-23T00:04:19.102Z,11.90
2023-05-23T00:06:47.079Z,12.50
2023-05-23T00:09:14.974Z,9.90
2023-05-23T00:11:45.705Z,10.40
2023-05-23T00:14:14.352Z,12.00
2023-05-23T00:16:44.312Z,9.80
2023-05-23T00:19:15.239Z,10.80
2023-05-23T00:21:44.009Z,9.20
2023-05-23T00:24:11.426Z,10.70
2023-05-23T00:26:39.020Z,10.90
2023-05-23T00:29:06.570Z,13.50
2023-05-23T00:31:34.115Z,12.20
2023-05-23T00:34:01.718Z,9.30
2023-05-23T00:36:29.212Z,9.90
2023-05-23T00:38:56.661Z,14.50
2023-05-23T00:41:26.101Z,13.00
2023-05-23T00:43:53.589Z,11.10
2023-05-23T00:46:23.345Z,10.00
2023-05-23T00:48:51.015Z,13.20
2023-05-23T00:51:18.599Z,10.70
2023-05-23T00:53:46.223Z,10.00
2023-05-23T00:56:13.922Z,10.50
2023-05-23T00:58:41.370Z,9.00
2023-05-23T01:01:08.820Z,10.40
2023-05-23T01:03:36.444Z,10.70
2023-05-23T01:06:07.475Z,8.30
2023-05-23T01:08:34.886Z,9.00
2023-05-23T01:11:04.697Z,9.10
2023-05-23T01:13:39.536Z,11.10
2023-05-23T01:16:15.313Z,10.30
2023-05-23T01:18:54.920Z,13.50
2023-05-23T01:21:22.498Z,9.60
2023-05-23T01:24:22.266Z,8.70
2023-05-23T01:26:56.279Z,8.70
2023-05-23T01:29:28.933Z,11.40
2023-05-23T01:31:58.450Z,12.90
2023-05-23T01:34:26.017Z,13.50
2023-05-23T01:36:56.786Z,12.30
2023-05-23T01:39:24.197Z,8.80
2023-05-23T01:41:52.147Z,13.10
2023-05-23T01:44:21.364Z,11.60
2023-05-23T01:46:49.059Z,12.10
2023-05-23T01:49:17.551Z,13.90
2023-05-23T01:51:45.182Z,9.80
2023-05-23T01:54:13.574Z,13.30
2023-05-23T01:56:41.082Z,10.70
2023-05-23T01:59:08.524Z,9.80
2023-05-23T02:01:36.094Z,11.30
2023-05-23T02:04:04.069Z,10.10
2023-05-23T02:06:32.024Z,10.80
2023-05-23T02:08:59.466Z,10.30
2023-05-23T02:11:27.171Z,19.60
2023-05-23T02:13:54.762Z,16.30
2023-05-23T02:16:23.432Z,9.40
2023-05-23T02:18:53.156Z,21.40
2023-05-23T02:21:20.741Z,21.10
2023-05-23T02:23:48.280Z,15.00
2023-05-23T02:26:18.436Z,17.10
2023-05-23T02:28:45.959Z,20.70
2023-05-23T02:31:17.479Z,21.20
2023-05-23T02:33:44.965Z,20.20
2023-05-23T02:36:12.385Z,15.50
2023-05-23T02:38:39.978Z,19.40
2023-05-23T02:41:07.588Z,17.60
2023-05-23T02:43:35.242Z,14.20
2023-05-23T02:46:03.156Z,14.90
2023-05-23T02:48:30.789Z,12.40
2023-05-23T02:50:58.394Z,16.90
2023-05-23T02:53:26.176Z,11.90
2023-05-23T02:55:53.828Z,14.90
2023-05-23T02:58:24.391Z,14.10
2023-05-23T03:00:52.129Z,11.00
2023-05-23T03:03:19.751Z,11.50
2023-05-23T03:05:47.206Z,8.30
2023-05-23T03:08:14.640Z,12.90
2023-05-23T03:10:42.088Z,12.10
2023-05-23T03:13:11.386Z,10.50
2023-05-23T03:15:38.956Z,9.80
2023-05-23T03:18:06.552Z,14.20
2023-05-23T03:20:34.233Z,13.10
2023-05-23T03:23:01.607Z,13.90
2023-05-23T03:25:29.116Z,14.10
2023-05-23T03:27:56.553Z,14.10
2023-05-23T03:30:24.021Z,14.30
2023-05-23T03:32:51.618Z,12.60
2023-05-23T03:35:19.053Z,13.10
2023-05-23T03:37:46.654Z,16.40
2023-05-23T03:40:14.102Z,15.60
2023-05-23T03:42:41.577Z,15.20
2023-05-23T03:45:09.843Z,15.70
2023-05-23T03:47:37.568Z,18.90
2023-05-23T03:50:06.257Z,12.70
2023-05-23T03:52:34.029Z,13.00
2023-05-23T03:55:01.625Z,16.30
2023-05-23T03:57:29.396Z,13.30
2023-05-23T03:59:57.246Z,10.70
2023-05-23T04:02:24.885Z,7.70
2023-05-23T04:04:54.241Z,9.70
2023-05-23T04:07:21.892Z,9.70
2023-05-23T04:09:49.253Z,8.20
2023-05-23T04:12:17.135Z,7.10
2023-05-23T04:14:44.784Z,8.90
2023-05-23T04:17:12.390Z,8.20
2023-05-23T04:19:39.949Z,8.90
2023-05-23T04:22:07.650Z,9.50
2023-05-23T04:24:35.224Z,11.90
2023-05-23T04:27:02.671Z,11.60
2023-05-23T04:29:31.879Z,9.10
2023-05-23T04:32:01.064Z,6.90
2023-05-23T04:34:29.203Z,10.10
2023-05-23T04:36:57.785Z,6.90
2023-05-23T04:39:26.318Z,10.90
2023-05-23T04:42:13.853Z,13.40
2023-05-23T04:45:03.838Z,6.20
2023-05-23T04:47:57.359Z,10.00
2023-05-23T04:50:38.453Z,8.30
2023-05-23T04:53:06.769Z,12.10
2023-05-23T04:55:34.743Z,9.90
2023-05-23T04:58:03.573Z,11.60
2023-05-23T05:00:31.051Z,10.40
2023-05-23T05:02:58.694Z,10.60
2023-05-23T05:05:29.256Z,12.00
2023-05-23T05:07:57.178Z,7.60
2023-05-23T05:10:27.859Z,9.40
2023-05-23T05:12:55.395Z,11.10
2023-05-23T05:15:23.948Z,11.50
2023-05-23T05:17:55.272Z,14.70
2023-05-23T05:20:23.302Z,7.60
2023-05-23T05:22:56.681Z,8.00
2023-05-23T05:25:24.624Z,10.90
2023-05-23T05:27:52.843Z,14.00
2023-05-23T05:30:21.660Z,12.40
2023-05-23T05:32:58.368Z,12.80
2023-05-23T05:35:26.069Z,14.90
2023-05-23T05:37:53.541Z,12.00
2023-05-23T05:40:21.078Z,11.10
2023-05-23T05:42:48.595Z,9.80
2023-05-23T05:45:16.189Z,9.20
2023-05-23T05:47:45.694Z,8.90
2023-05-23T05:50:13.169Z,12.30
2023-05-23T05:52:42.495Z,11.50
2023-05-23T05:55:13.940Z,9.80
2023-05-23T05:57:46.074Z,9.20
2023-05-23T06:00:19.296Z,11.80
2023-05-23T06:02:47.822Z,9.60
2023-05-23T06:05:18.947Z,14.40
2023-05-23T06:07:48.611Z,16.80
2023-05-23T06:10:16.253Z,11.10
2023-05-23T06:12:43.912Z,11.50
2023-05-23T06:15:11.682Z,9.20
2023-05-23T06:17:40.237Z,7.70
2023-05-23T06:20:08.435Z,12.90
2023-05-23T06:22:37.144Z,9.60
2023-05-23T06:25:06.322Z,10.70
2023-05-23T06:27:33.780Z,9.30
2023-05-23T06:30:01.314Z,26.20
2023-05-23T06:32:29.232Z,11.20
2023-05-23T06:34:56.873Z,14.70
2023-05-23T06:37:24.304Z,10.70
2023-05-23T06:39:51.876Z,9.10
2023-05-23T06:42:19.603Z,16.60
2023-05-23T06:44:56.951Z,11.80
2023-05-23T06:47:25.554Z,14.40
2023-05-23T06:49:53.177Z,11.30
2023-05-23T06:52:20.626Z,8.60
2023-05-23T06:54:48.277Z,15.00
2023-05-23T06:57:16.670Z,8.40
2023-05-23T06:59:47.452Z,11.60
2023-05-23T07:02:18.087Z,8.90
2023-05-23T07:04:46.461Z,12.60
2023-05-23T07:07:18.647Z,9.70
2023-05-23T07:09:46.799Z,7.60
2023-05-23T07:12:17.846Z,8.50
2023-05-23T07:14:45.737Z,10.60
2023-05-23T07:17:14.429Z,11.20
2023-05-23T07:19:42.478Z,14.50
2023-05-23T07:22:10.067Z,11.90
2023-05-23T07:24:38.402Z,9.50
2023-05-23T07:27:06.708Z,13.40
2023-05-23T07:29:34.991Z,13.80
2023-05-23T07:32:02.412Z,13.20
2023-05-23T07:34:30.972Z,11.80
2023-05-23T07:39:31.879Z,16.90
2023-05-23T07:41:59.895Z,14.60
2023-05-23T07:44:28.673Z,13.10
2023-05-23T07:46:56.318Z,6.00
2023-05-23T07:49:24.457Z,12.80
2023-05-23T07:51:51.947Z,17.60
2023-05-23T07:54:19.432Z,11.00
2023-05-23T07:56:48.970Z,9.30
2023-05-23T07:59:16.920Z,15.70
2023-05-23T08:01:45.184Z,23.30
2023-05-23T08:04:18.688Z,9.00
2023-05-23T08:07:04.297Z,9.20
2023-05-23T08:09:53.118Z,11.00
2023-05-23T08:12:24.112Z,12.90
2023-05-23T08:14:56.689Z,13.50
2023-05-23T08:17:28.733Z,13.50
2023-05-23T08:19:56.498Z,16.90
2023-05-23T08:22:23.966Z,11.20
2023-05-23T08:24:51.453Z,9.30
2023-05-23T08:27:19.010Z,38.00
2023-05-23T08:29:49.107Z,10.90
2023-05-23T08:32:16.820Z,9.10
2023-05-23T08:34:44.559Z,11.50
2023-05-23T08:37:12.060Z,9.60
2023-05-23T08:39:39.842Z,10.70
2023-05-23T08:42:26.976Z,6.50
2023-05-23T08:44:55.124Z,7.40
2023-05-23T08:47:23.111Z,7.10
2023-05-23T08:49:55.346Z,9.10
2023-05-23T08:52:23.055Z,12.90
2023-05-23T08:54:51.687Z,11.30
2023-05-23T08:57:19.297Z,10.60
2023-05-23T08:59:51.045Z,7.70
2023-05-23T09:02:18.671Z,8.10
2023-05-23T09:04:46.864Z,7.00
2023-05-23T09:07:22.760Z,8.90
2023-05-23T09:09:54.058Z,8.80
2023-05-23T09:12:23.892Z,7.70
2023-05-23T09:14:51.976Z,10.60
2023-05-23T09:17:20.589Z,7.30
2023-05-23T09:19:49.010Z,10.10
2023-05-23T09:22:49.169Z,8.00
2023-05-23T09:25:17.142Z,11.60
2023-05-23T09:27:48.033Z,6.10
2023-05-23T09:30:16.318Z,11.20
2023-05-23T09:32:44.928Z,9.30
2023-05-23T09:35:14.308Z,10.30
2023-05-23T09:37:50.653Z,7.80
2023-05-23T09:40:18.225Z,10.50
2023-05-23T09:42:51.280Z,8.50
2023-05-23T09:45:18.842Z,9.50
2023-05-23T09:47:51.594Z,11.30
2023-05-23T09:50:19.872Z,7.50
2023-05-23T09:52:48.255Z,8.30
2023-05-23T09:55:19.083Z,7.00
2023-05-23T09:57:46.700Z,8.10
2023-05-23T10:00:14.656Z,10.90
2023-05-23T10:03:00.799Z,10.20
2023-05-23T10:05:30.919Z,7.20
2023-05-23T10:08:03.313Z,12.00
2023-05-23T10:10:36.138Z,12.00
2023-05-23T10:13:06.725Z,8.60
2023-05-23T10:15:39.490Z,7.30
2023-05-23T10:18:21.670Z,10.90
2023-05-23T10:20:49.614Z,6.80
2023-05-23T10:23:17.577Z,8.00
2023-05-23T10:25:45.002Z,5.40
2023-05-23T10:28:12.521Z,6.70
2023-05-23T10:30:40.167Z,7.50
2023-05-23T10:33:08.902Z,13.50
2023-05-23T10:36:00.501Z,6.50
2023-05-23T10:38:34.118Z,12.40
2023-05-23T10:41:06.910Z,8.70
2023-05-23T10:43:40.507Z,10.80
2023-05-23T10:46:14.911Z,8.80
2023-05-23T10:48:43.726Z,6.40
2023-05-23T10:51:12.794Z,5.60
2023-05-23T10:53:44.447Z,11.80
2023-05-23T10:56:22.134Z,10.10
2023-05-23T10:58:55.000Z,7.60
2023-05-23T11:01:26.006Z,9.70
2023-05-23T11:03:55.301Z,7.10
2023-05-23T11:06:29.808Z,10.60
2023-05-23T11:09:07.356Z,13.40
2023-05-23T11:12:05.939Z,14.70
2023-05-23T11:14:33.576Z,9.20
2023-05-23T11:17:01.666Z,9.50
2023-05-23T11:19:30.070Z,13.20
2023-05-23T11:22:02.340Z,7.70
2023-05-23T11:24:48.296Z,5.50
2023-05-23T11:27:15.928Z,7.50
2023-05-23T11:29:43.513Z,6.30
2023-05-23T11:32:17.158Z,10.50
2023-05-23T11:34:45.497Z,9.40
2023-05-23T11:37:13.123Z,16.70
2023-05-23T11:39:40.979Z,9.00
2023-05-23T11:42:08.451Z,8.40
2023-05-23T11:44:36.125Z,6.80
2023-05-23T11:47:04.782Z,7.80
2023-05-23T11:49:34.554Z,7.20
2023-05-23T11:52:02.450Z,12.20
2023-05-23T11:54:30.283Z,19.60
2023-05-23T11:56:57.871Z,9.80
2023-05-23T11:59:26.473Z,14.50
2023-05-23T12:01:54.266Z,10.30
2023-05-23T12:04:22.093Z,18.70
2023-05-23T12:06:50.732Z,13.00
2023-05-23T12:09:18.294Z,13.60
2023-05-23T12:11:48.768Z,8.70
2023-05-23T12:14:17.495Z,13.00
2023-05-23T12:16:48.523Z,10.20
2023-05-23T12:19:18.299Z,10.70
2023-05-23T12:24:21.707Z,10.40
2023-05-23T12:26:53.776Z,7.40
2023-05-23T12:29:22.628Z,10.10
2023-05-23T12:31:51.733Z,9.60
2023-05-23T12:34:20.682Z,7.50
2023-05-23T12:36:51.915Z,13.00
2023-05-23T12:39:29.035Z,8.40
2023-05-23T12:42:07.051Z,9.50
2023-05-23T12:44:41.681Z,6.70
2023-05-23T12:47:10.636Z,13.70
2023-05-23T12:49:38.527Z,8.10
2023-05-23T12:52:06.379Z,13.20
2023-05-23T12:54:33.888Z,7.70
2023-05-23T12:57:01.412Z,7.20
2023-05-23T12:59:29.110Z,16.90
2023-05-23T13:02:01.180Z,7.20
2023-05-23T13:04:34.194Z,10.00
2023-05-23T13:07:03.228Z,9.00
2023-05-23T13:09:31.193Z,9.00
2023-05-23T13:11:59.046Z,10.50
2023-05-23T13:14:26.880Z,10.50
2023-05-23T13:16:55.466Z,6.80
2023-05-23T13:19:23.054Z,14.30
2023-05-23T13:21:53.736Z,9.40
2023-05-23T13:24:21.323Z,16.60
2023-05-23T13:26:48.836Z,7.20
2023-05-23T13:29:16.358Z,9.20
2023-05-23T13:31:43.986Z,10.80
2023-05-23T13:34:11.758Z,7.90
2023-05-23T13:36:39.345Z,10.70
2023-05-23T13:39:07.529Z,9.90
2023-05-23T13:41:34.988Z,5.90
2023-05-23T13:44:02.472Z,8.50
2023-05-23T13:46:30.011Z,7.00
2023-05-23T13:48:58.553Z,9.70
2023-05-23T13:51:26.031Z,8.80
2023-05-23T13:53:53.523Z,6.00
2023-05-23T13:56:21.529Z,11.60
2023-05-23T13:58:48.985Z,10.00
2023-05-23T14:01:17.604Z,7.60
2023-05-23T14:03:45.008Z,7.10
2023-05-23T14:06:12.406Z,7.90
2023-05-23T14:08:39.858Z,7.80
2023-05-23T14:11:08.150Z,10.80
2023-05-23T14:13:35.674Z,9.90
2023-05-23T14:16:03.190Z,6.10
2023-05-23T14:18:30.645Z,13.10
2023-05-23T14:20:58.187Z,14.60
2023-05-23T14:23:25.599Z,12.80
2023-05-23T14:25:53.012Z,6.50
2023-05-23T14:28:20.609Z,7.30
2023-05-23T14:30:48.117Z,8.80
2023-05-23T14:33:16.113Z,5.60
2023-05-23T14:35:46.729Z,7.60
2023-05-23T14:38:14.186Z,11.50
2023-05-23T14:40:43.873Z,12.50
2023-05-23T14:43:12.297Z,6.10
2023-05-23T14:45:40.019Z,13.70
2023-05-23T14:48:07.799Z,8.00
2023-05-23T14:50:36.185Z,6.70
2023-05-23T14:53:03.798Z,7.50
2023-05-23T14:55:31.240Z,7.20
2023-05-23T14:57:58.686Z,5.50
2023-05-23T15:00:26.159Z,12.80
2023-05-23T15:02:53.754Z,13.70
2023-05-23T15:05:21.548Z,11.00
2023-05-23T15:07:48.959Z,9.00
2023-05-23T15:10:16.420Z,6.60
2023-05-23T15:12:44.125Z,9.10
2023-05-23T15:15:11.995Z,11.80
2023-05-23T15:17:39.683Z,11.90
2023-05-23T15:20:08.481Z,10.10
2023-05-23T15:22:39.711Z,8.40
2023-05-23T15:25:08.343Z,7.50
2023-05-23T15:27:36.251Z,10.40
2023-05-23T15:30:04.336Z,11.10
2023-05-23T15:32:31.786Z,17.20
2023-05-23T15:34:59.252Z,8.80
2023-05-23T15:37:26.743Z,14.50
2023-05-23T15:39:54.143Z,11.60
2023-05-23T15:42:21.640Z,13.60
2023-05-23T15:44:49.120Z,10.10
2023-05-23T15:47:16.696Z,13.40
2023-05-23T15:49:44.111Z,14.30
2023-05-23T15:52:11.559Z,9.00
2023-05-23T15:54:39.098Z,8.60
2023-05-23T15:57:06.504Z,9.30
2023-05-23T15:59:34.262Z,10.50
2023-05-23T16:02:05.472Z,6.80
2023-05-23T16:04:33.133Z,7.20
2023-05-23T16:07:00.611Z,8.50
2023-05-23T16:09:28.047Z,16.70
2023-05-23T16:11:57.111Z,13.30
2023-05-23T16:14:25.028Z,8.20
2023-05-23T16:16:52.593Z,14.50
2023-05-23T16:19:20.160Z,8.80
2023-05-23T16:21:47.744Z,11.40
2023-05-23T16:24:17.135Z,11.60
2023-05-23T16:26:44.690Z,22.20
2023-05-23T16:29:12.533Z,10.10
2023-05-23T16:31:40.042Z,18.50
2023-05-23T16:34:08.569Z,14.80
2023-05-23T16:36:37.281Z,14.50
2023-05-23T16:39:04.733Z,11.60
2023-05-23T16:41:32.203Z,14.70
2023-05-23T16:43:59.707Z,11.50
2023-05-23T16:46:27.324Z,15.30
2023-05-23T16:48:55.980Z,15.10
2023-05-23T16:51:23.445Z,9.60
2023-05-23T16:53:50.964Z,9.60
2023-05-23T16:56:18.999Z,11.50
2023-05-23T16:58:46.832Z,12.90
2023-05-23T17:01:16.624Z,8.10
2023-05-23T17:06:11.885Z,16.90
2023-05-23T17:08:39.332Z,10.30
2023-05-23T17:11:06.849Z,13.40
2023-05-23T17:13:34.869Z,7.60
2023-05-23T17:16:02.537Z,11.20
2023-05-23T17:18:30.277Z,8.30
2023-05-23T17:20:58.210Z,11.30
2023-05-23T17:23:26.026Z,11.20
2023-05-23T17:25:54.335Z,9.30
2023-05-23T17:28:22.677Z,7.60
2023-05-23T17:30:51.912Z,13.00
2023-05-23T17:33:19.724Z,10.40
2023-05-23T17:35:47.170Z,17.40
2023-05-23T17:38:14.722Z,11.00
2023-05-23T17:40:42.500Z,8.90
2023-05-23T17:43:10.266Z,10.80
2023-05-23T17:45:37.770Z,11.80
2023-05-23T17:48:05.348Z,11.50
2023-05-23T17:50:32.785Z,13.00
2023-05-23T17:53:04.327Z,15.70
2023-05-23T17:55:32.056Z,11.80
2023-05-23T17:57:59.496Z,13.10
2023-05-23T18:00:27.001Z,18.20
2023-05-23T18:02:54.528Z,15.60
2023-05-23T18:05:23.807Z,18.90
2023-05-23T18:07:51.284Z,15.00
2023-05-23T18:10:18.915Z,12.70
2023-05-23T18:12:46.604Z,22.00
2023-05-23T18:15:14.102Z,17.20
2023-05-23T18:17:41.832Z,16.60
2023-05-23T18:20:09.871Z,13.80
2023-05-23T18:22:37.718Z,28.30
2023-05-23T18:25:06.900Z,11.20
2023-05-23T18:27:34.499Z,13.90
2023-05-23T18:30:02.047Z,19.60
2023-05-23T18:32:30.379Z,14.60
2023-05-23T18:34:57.883Z,18.30
2023-05-23T18:37:25.499Z,15.30
2023-05-23T18:39:53.261Z,14.80
2023-05-23T18:42:20.738Z,13.20
2023-05-23T18:44:51.985Z,17.70
2023-05-23T18:47:19.507Z,17.90
2023-05-23T18:49:47.128Z,13.40
2023-05-23T18:52:14.655Z,13.80
2023-05-23T18:54:42.599Z,12.80
2023-05-23T18:57:10.505Z,20.60
2023-05-23T18:59:41.340Z,11.80
2023-05-23T19:02:08.900Z,19.10
2023-05-23T19:04:36.806Z,22.90
2023-05-23T19:07:04.509Z,20.10
2023-05-23T19:09:32.290Z,19.60
2023-05-23T19:12:06.238Z,24.80
2023-05-23T19:14:33.705Z,20.40
2023-05-23T19:17:01.192Z,15.80
2023-05-23T19:19:30.935Z,18.90
2023-05-23T19:21:59.298Z,25.80
2023-05-23T19:24:30.917Z,21.10
2023-05-23T19:26:58.338Z,14.40
2023-05-23T19:29:27.198Z,15.80
2023-05-23T19:31:55.428Z,18.40
2023-05-23T19:34:22.827Z,18.10
2023-05-23T19:36:50.526Z,16.80
2023-05-23T19:39:17.972Z,20.60
2023-05-23T19:41:45.534Z,20.00
2023-05-23T19:44:14.035Z,20.70
2023-05-23T19:46:42.337Z,21.40
2023-05-23T19:49:09.934Z,18.50
2023-05-23T19:51:37.932Z,21.30
2023-05-23T19:54:05.785Z,29.90
2023-05-23T19:56:36.019Z,18.30
2023-05-23T20:01:32.798Z,13.20
2023-05-23T20:04:00.599Z,17.90
2023-05-23T20:06:28.217Z,17.20
2023-05-23T20:08:55.724Z,16.90
2023-05-23T20:11:29.943Z,17.50
2023-05-23T20:13:57.755Z,17.20
2023-05-23T20:16:25.346Z,19.80
2023-05-23T20:18:52.890Z,23.10
2023-05-23T20:21:20.488Z,22.20
2023-05-23T20:23:49.757Z,25.10
2023-05-23T20:26:22.852Z,28.20
2023-05-23T20:28:50.571Z,17.50
2023-05-23T20:31:18.976Z,18.40
2023-05-23T20:33:46.533Z,26.40
2023-05-23T20:36:19.754Z,15.60
2023-05-23T20:38:48.076Z,17.90
2023-05-23T20:41:15.653Z,19.20
2023-05-23T20:43:44.788Z,22.70
2023-05-23T20:46:13.837Z,23.70
2023-05-23T20:48:41.867Z,28.30
2023-05-23T20:51:09.840Z,29.50
2023-05-23T20:53:40.622Z,22.40
2023-05-23T20:56:10.485Z,20.00
2023-05-23T20:58:38.291Z,21.90
2023-05-23T21:01:05.774Z,31.40
2023-05-23T21:03:33.466Z,28.30
2023-05-23T21:06:04.516Z,45.60
2023-05-23T21:08:34.554Z,29.40
2023-05-23T21:11:02.499Z,28.30
2023-05-23T21:13:29.950Z,30.30
2023-05-23T21:15:57.531Z,23.60
2023-05-23T21:18:24.945Z,20.10
2023-05-23T21:20:52.563Z,27.30
2023-05-23T21:23:19.990Z,26.20
2023-05-23T21:25:47.516Z,24.70
2023-05-23T21:28:14.961Z,34.10
2023-05-23T21:30:43.110Z,24.20
2023-05-23T21:33:11.387Z,17.50
2023-05-23T21:35:38.968Z,20.40
2023-05-23T21:38:06.420Z,16.80
2023-05-23T21:40:33.861Z,20.20
2023-05-23T21:43:02.134Z,14.40
2023-05-23T21:45:29.640Z,20.80
2023-05-23T21:47:57.237Z,18.30
2023-05-23T21:50:24.703Z,17.10
2023-05-23T21:52:52.134Z,19.00
2023-05-23T21:55:19.637Z,22.80
2023-05-23T21:57:49.147Z,18.20
2023-05-23T22:00:19.110Z,25.30
2023-05-23T22:02:47.436Z,15.60
2023-05-23T22:05:15.463Z,15.70
2023-05-23T22:07:42.964Z,16.10
2023-05-23T22:10:11.173Z,19.60
2023-05-23T22:12:38.991Z,21.70
2023-05-23T22:15:08.443Z,16.90
2023-05-23T22:17:36.048Z,11.70
2023-05-23T22:20:05.478Z,20.00
2023-05-23T22:22:33.039Z,18.60
2023-05-23T22:25:00.442Z,15.40
2023-05-23T22:27:27.854Z,17.00
2023-05-23T22:29:55.279Z,17.60
2023-05-23T22:32:22.782Z,18.00
2023-05-23T22:34:50.550Z,21.00
2023-05-23T22:37:18.077Z,23.00
2023-05-23T22:39:45.642Z,21.50
2023-05-23T22:42:13.149Z,23.00
2023-05-23T22:45:06.369Z,14.30
2023-05-23T22:47:34.564Z,16.50
2023-05-23T22:50:02.389Z,22.90
2023-05-23T22:52:31.458Z,22.40
2023-05-23T22:54:58.918Z,22.20
2023-05-23T22:57:26.469Z,18.60
2023-05-23T22:59:53.937Z,19.60
2023-05-23T23:02:21.450Z,23.00
2023-05-23T23:04:48.982Z,20.00
2023-05-23T23:07:17.048Z,20.80
2023-05-23T23:09:44.490Z,24.10
2023-05-23T23:12:11.897Z,17.90
2023-05-23T23:14:39.349Z,24.20
2023-05-23T23:17:06.853Z,20.50
2023-05-23T23:19:35.399Z,16.60
2023-05-23T23:22:02.827Z,17.70
2023-05-23T23:24:30.986Z,23.80
2023-05-23T23:26:58.448Z,22.60
2023-05-23T23:29:26.004Z,15.10
2023-05-23T23:31:55.871Z,18.70
2023-05-23T23:34:23.325Z,16.20
2023-05-23T23:36:50.782Z,18.50
2023-05-23T23:39:19.028Z,18.00
2023-05-23T23:41:46.577Z,16.20
2023-05-23T23:44:14.767Z,15.40
2023-05-23T23:46:42.264Z,23.60
2023-05-23T23:49:09.775Z,15.80
2023-05-23T23:51:37.161Z,14.20
2023-05-23T23:54:04.689Z,16.00
2023-05-23T23:56:32.263Z,19.50
2023-05-23T23:58:59.678Z,15.60
